BCS3844 EDDP-EKBI
Flight info
| Callsign | BCS3844 |
|---|---|
| Flight time | N/A |
| Altitude | 24000 |
| Route | PENEM1E PENEM Z131 PENEK DCT RADEL DCT SONAL DCT LOKSA |
| Aircraft | B722/M-SDFGHRWY/C |
Departure
| Time | 2026-05-07 18:04 |
|---|---|
| Airport | Leipzig/Halle Airport (EDDP) |
Arrival
| Time | N/A |
|---|---|
| Airport | Billund Airport (EKBI) |
| Time | Latitude | Longitude | Altitude | Speed | Heading |
|---|---|---|---|---|---|
| 2026-05-07 17:33 | 51.40802 | 12.20109 | 436 ft | 0 kts | 175° |
| 2026-05-07 17:55 | 51.40803 | 12.20109 | 441 ft | 2 kts | 175° |
| 2026-05-07 17:55 | 51.40828 | 12.20105 | 428 ft | 4 kts | 172° |
| 2026-05-07 17:55 | 51.40855 | 12.20097 | 431 ft | 4 kts | 166° |
| 2026-05-07 17:56 | 51.40880 | 12.20084 | 426 ft | 4 kts | 156° |
| 2026-05-07 17:56 | 51.40901 | 12.20062 | 430 ft | 4 kts | 132° |
| 2026-05-07 17:56 | 51.40908 | 12.20034 | 434 ft | 1 kts | 86° |
| 2026-05-07 17:56 | 51.40908 | 12.20033 | 434 ft | 0 kts | 86° |
| 2026-05-07 18:00 | 51.40909 | 12.20062 | 432 ft | 6 kts | 89° |
| 2026-05-07 18:01 | 51.40911 | 12.20122 | 442 ft | 11 kts | 86° |
| 2026-05-07 18:01 | 51.40916 | 12.20214 | 436 ft | 6 kts | 82° |
| 2026-05-07 18:01 | 51.40921 | 12.20300 | 441 ft | 9 kts | 87° |
| 2026-05-07 18:01 | 51.40923 | 12.20342 | 441 ft | 4 kts | 86° |
| 2026-05-07 18:02 | 51.40964 | 12.20445 | 437 ft | 8 kts | 19° |
| 2026-05-07 18:02 | 51.41029 | 12.20477 | 429 ft | 11 kts | 16° |
| 2026-05-07 18:02 | 51.41092 | 12.20504 | 440 ft | 7 kts | 14° |
| 2026-05-07 18:03 | 51.41141 | 12.20531 | 442 ft | 9 kts | 30° |
| 2026-05-07 18:03 | 51.41164 | 12.20588 | 438 ft | 0 kts | 79° |
| 2026-05-07 18:04 | 51.41171 | 12.20671 | 432 ft | 32 kts | 84° |
| 2026-05-07 18:04 | 51.41207 | 12.21418 | 456 ft | 101 kts | 85° |
| 2026-05-07 18:04 | 51.41276 | 12.22864 | 575 ft | 146 kts | 85° |
| 2026-05-07 18:04 | 51.41316 | 12.24523 | 1197 ft | 156 kts | 84° |
| 2026-05-07 18:05 | 51.41398 | 12.26390 | 1675 ft | 185 kts | 84° |
| 2026-05-07 18:05 | 51.41505 | 12.28691 | 2004 ft | 230 kts | 84° |
| 2026-05-07 18:05 | 51.41649 | 12.31531 | 2374 ft | 271 kts | 84° |
| 2026-05-07 18:05 | 51.41825 | 12.34317 | 4046 ft | 224 kts | 79° |
| 2026-05-07 18:06 | 51.42222 | 12.36461 | 4695 ft | 185 kts | 63° |
| 2026-05-07 18:06 | 51.42821 | 12.38081 | 4941 ft | 157 kts | 53° |
| 2026-05-07 18:06 | 51.43540 | 12.39381 | 4857 ft | 156 kts | 41° |
| 2026-05-07 18:06 | 51.44390 | 12.40424 | 4810 ft | 152 kts | 31° |
| 2026-05-07 18:07 | 51.45330 | 12.41178 | 5025 ft | 149 kts | 20° |
| 2026-05-07 18:07 | 51.46341 | 12.41646 | 5434 ft | 153 kts | 10° |
| 2026-05-07 18:07 | 51.47411 | 12.41801 | 5848 ft | 156 kts | 0° |
| 2026-05-07 18:07 | 51.48483 | 12.41631 | 6260 ft | 159 kts | 349° |
| 2026-05-07 18:08 | 51.49553 | 12.41192 | 6661 ft | 159 kts | 346° |
| 2026-05-07 18:08 | 51.50629 | 12.40730 | 7050 ft | 160 kts | 346° |
| 2026-05-07 18:08 | 51.51715 | 12.40272 | 7432 ft | 161 kts | 346° |
| 2026-05-07 18:08 | 51.52771 | 12.39649 | 7733 ft | 167 kts | 319° |
| 2026-05-07 18:09 | 51.53504 | 12.38239 | 8072 ft | 164 kts | 309° |
| 2026-05-07 18:09 | 51.54262 | 12.36843 | 8504 ft | 165 kts | 315° |
| 2026-05-07 18:09 | 51.55065 | 12.35512 | 8926 ft | 166 kts | 315° |
| 2026-05-07 18:09 | 51.55858 | 12.34184 | 9340 ft | 167 kts | 315° |
| 2026-05-07 18:10 | 51.56663 | 12.32837 | 9749 ft | 168 kts | 315° |
| 2026-05-07 18:10 | 51.57477 | 12.31476 | 10142 ft | 169 kts | 315° |
| 2026-05-07 18:10 | 51.58291 | 12.30109 | 10511 ft | 170 kts | 315° |
| 2026-05-07 18:10 | 51.59109 | 12.28739 | 10889 ft | 170 kts | 315° |
| 2026-05-07 18:11 | 51.59937 | 12.27359 | 11255 ft | 172 kts | 321° |
| 2026-05-07 18:11 | 51.61002 | 12.26587 | 11555 ft | 172 kts | 348° |
| 2026-05-07 18:11 | 51.62172 | 12.26145 | 11782 ft | 172 kts | 345° |
| 2026-05-07 18:11 | 51.63320 | 12.25594 | 11957 ft | 173 kts | 343° |
| 2026-05-07 18:12 | 51.64476 | 12.25027 | 12130 ft | 174 kts | 344° |
| 2026-05-07 18:12 | 51.65658 | 12.24454 | 12321 ft | 177 kts | 345° |
| 2026-05-07 18:12 | 51.66845 | 12.23881 | 12540 ft | 178 kts | 345° |
| 2026-05-07 18:12 | 51.68020 | 12.23311 | 12752 ft | 178 kts | 345° |
| 2026-05-07 18:13 | 51.69214 | 12.22733 | 12966 ft | 179 kts | 345° |
| 2026-05-07 18:13 | 51.70419 | 12.22150 | 13123 ft | 180 kts | 345° |
| 2026-05-07 18:13 | 51.71600 | 12.21576 | 13317 ft | 180 kts | 345° |
| 2026-05-07 18:13 | 51.72802 | 12.20993 | 13498 ft | 181 kts | 345° |
| 2026-05-07 18:14 | 51.74026 | 12.20399 | 13713 ft | 189 kts | 345° |
| 2026-05-07 18:14 | 51.75345 | 12.19764 | 14006 ft | 207 kts | 345° |
| 2026-05-07 18:14 | 51.76800 | 12.19057 | 14293 ft | 230 kts | 345° |
| 2026-05-07 18:14 | 51.78410 | 12.18272 | 14565 ft | 254 kts | 345° |
| 2026-05-07 18:15 | 51.80232 | 12.17800 | 14816 ft | 278 kts | 5° |
| 2026-05-07 18:15 | 51.82194 | 12.18552 | 15069 ft | 303 kts | 20° |
| 2026-05-07 18:15 | 51.84217 | 12.19847 | 15301 ft | 329 kts | 17° |
| 2026-05-07 18:15 | 51.86546 | 12.20608 | 15518 ft | 355 kts | 6° |
| 2026-05-07 18:16 | 51.89100 | 12.20598 | 15721 ft | 380 kts | 355° |
| 2026-05-07 18:16 | 51.91779 | 12.19764 | 15919 ft | 405 kts | 344° |
| 2026-05-07 18:16 | 51.94496 | 12.18074 | 16115 ft | 428 kts | 335° |
| 2026-05-07 18:16 | 51.97092 | 12.15595 | 16304 ft | 449 kts | 326° |
| 2026-05-07 18:17 | 51.99550 | 12.12308 | 16495 ft | 468 kts | 317° |
| 2026-05-07 18:17 | 52.01713 | 12.08315 | 17158 ft | 474 kts | 307° |
| 2026-05-07 18:17 | 52.03504 | 12.03875 | 17301 ft | 453 kts | 302° |
| 2026-05-07 18:17 | 52.04970 | 11.99314 | 14851 ft | 463 kts | 294° |
| 2026-05-07 18:18 | 52.06128 | 11.94452 | 13202 ft | 452 kts | 291° |
| 2026-05-07 18:18 | 52.07093 | 11.89708 | 11480 ft | 444 kts | 288° |
| 2026-05-07 18:18 | 52.07916 | 11.84887 | 9783 ft | 436 kts | 285° |